Time;durP1;ratioP1;P1;durP2;ratioP2;P2;SDS_P1;SDS_P2;PMS_P1;PMS_P2;Temp;Humidity;BMP_temperature;BMP_pressure;BME280_temperature;BME280_humidity;BME280_pressure;Samples;Min_cycle;Max_cycle;Signal;HPM_P1;HPM_P2
2022/11/01 00:00:16;;;;;;;10.17;8.13;;;14.40;99.90;;;;;;5035002;28;20651;-72
2022/11/01 00:02:42;;;;;;;10.20;7.93;;;14.40;99.90;;;;;;5034622;28;20203;-71
2022/11/01 00:05:08;;;;;;;9.67;8.30;;;14.40;99.90;;;;;;5034959;28;20411;-72
2022/11/01 00:07:33;;;;;;;9.47;8.47;;;14.50;99.90;;;;;;5023151;28;20188;-72
2022/11/01 00:09:59;;;;;;;9.43;7.93;;;14.50;99.90;;;;;;5030561;28;20409;-72
2022/11/01 00:12:24;;;;;;;10.50;9.00;;;14.50;99.90;;;;;;5025738;28;20190;-75
2022/11/01 00:14:50;;;;;;;10.43;8.80;;;14.50;99.90;;;;;;5034778;28;20226;-72
2022/11/01 00:17:15;;;;;;;9.53;8.23;;;14.60;99.90;;;;;;5035024;28;20272;-71
2022/11/01 00:19:41;;;;;;;14.03;10.03;;;14.60;99.90;;;;;;5035208;28;20165;-72
2022/11/01 00:22:06;;;;;;;10.80;9.23;;;14.50;99.90;;;;;;5035154;28;20204;-72
2022/11/01 00:24:32;;;;;;;15.10;10.27;;;14.50;99.90;;;;;;5025248;28;20173;-72
2022/11/01 00:26:58;;;;;;;15.73;11.07;;;14.40;99.90;;;;;;5015047;28;20243;-72
2022/11/01 00:29:24;;;;;;;15.00;12.03;;;14.50;99.90;;;;;;5021751;28;20584;-73
2022/11/01 00:31:49;;;;;;;15.80;11.90;;;14.40;99.90;;;;;;5034694;28;20444;-72
2022/11/01 00:34:15;;;;;;;12.47;9.80;;;14.40;99.90;;;;;;5034872;28;20177;-73
2022/11/01 00:36:41;;;;;;;14.73;11.00;;;14.40;99.90;;;;;;5035144;28;20189;-73
2022/11/01 00:39:07;;;;;;;13.00;11.27;;;14.40;99.90;;;;;;5034693;28;20208;-73
2022/11/01 00:41:33;;;;;;;9.83;8.40;;;14.50;99.90;;;;;;5034698;28;20188;-73
2022/11/01 00:43:59;;;;;;;10.30;9.20;;;14.50;99.90;;;;;;5034340;28;20622;-73
2022/11/01 00:46:25;;;;;;;10.93;8.43;;;14.40;99.90;;;;;;5034467;28;20436;-72
2022/11/01 00:48:50;;;;;;;13.00;8.63;;;14.50;99.90;;;;;;5034442;28;20253;-72
2022/11/01 00:51:16;;;;;;;11.70;8.50;;;14.60;99.90;;;;;;5034308;28;20404;-72
2022/11/01 00:53:41;;;;;;;9.90;8.17;;;14.50;99.90;;;;;;5034271;28;20229;-73
2022/11/01 00:56:07;;;;;;;12.80;8.30;;;14.50;99.90;;;;;;5028749;28;20179;-73
2022/11/01 00:58:34;;;;;;;12.00;9.13;;;14.50;99.90;;;;;;5014519;28;20174;-74
2022/11/01 01:01:00;;;;;;;10.47;7.43;;;14.60;99.90;;;;;;5032478;28;20214;-72
2022/11/01 01:03:25;;;;;;;8.83;7.80;;;14.60;99.90;;;;;;5034244;28;20438;-74
2022/11/01 01:05:52;;;;;;;9.10;8.00;;;14.60;99.90;;;;;;5034090;28;20179;-74
2022/11/01 01:08:19;;;;;;;9.17;8.20;;;14.70;99.90;;;;;;5032744;28;20198;-74
2022/11/01 01:10:45;;;;;;;10.90;7.90;;;14.60;99.90;;;;;;5034623;28;20412;-72
2022/11/01 01:13:11;;;;;;;9.80;7.27;;;14.60;99.90;;;;;;5034005;28;20571;-72
2022/11/01 01:15:38;;;;;;;7.43;6.73;;;14.70;99.90;;;;;;5033372;28;20472;-72
2022/11/01 01:18:04;;;;;;;12.57;8.93;;;14.70;99.90;;;;;;5033669;28;20288;-73
2022/11/01 01:20:29;;;;;;;15.40;8.90;;;14.70;99.90;;;;;;5033763;28;20412;-72
2022/11/01 01:22:55;;;;;;;8.73;7.50;;;14.60;99.90;;;;;;5033851;28;20411;-72
2022/11/01 01:25:21;;;;;;;13.10;7.60;;;14.60;99.90;;;;;;5033862;28;20167;-71
2022/11/01 01:27:47;;;;;;;9.53;8.53;;;14.50;99.90;;;;;;5033781;28;20190;-72
2022/11/01 01:30:13;;;;;;;9.53;7.90;;;14.50;99.90;;;;;;5032633;28;20181;-72
2022/11/01 01:32:39;;;;;;;11.03;7.37;;;14.40;99.90;;;;;;5034005;28;20254;-72
2022/11/01 01:35:05;;;;;;;13.47;8.00;;;14.50;99.90;;;;;;5034079;28;20411;-72
2022/11/01 01:37:30;;;;;;;10.37;7.50;;;14.50;99.90;;;;;;5033701;28;20193;-72
2022/11/01 01:39:56;;;;;;;15.23;8.07;;;14.40;99.90;;;;;;5033684;28;20403;-71
2022/11/01 01:42:28;;;;;;;11.13;7.33;;;14.30;99.90;;;;;;5033723;28;20207;-70
2022/11/01 01:44:54;;;;;;;12.50;8.77;;;14.20;99.90;;;;;;5033464;28;20537;-71
2022/11/01 01:47:39;;;;;;;10.83;7.83;;;14.20;99.90;;;;;;5033391;28;20447;-71
2022/11/01 01:50:16;;;;;;;9.33;7.67;;;14.30;99.90;;;;;;5033539;28;20176;-72
2022/11/01 01:52:56;;;;;;;8.47;7.57;;;14.20;99.90;;;;;;5033602;28;20843;-73
2022/11/01 01:55:26;;;;;;;9.10;6.93;;;14.30;99.90;;;;;;5033329;28;20403;-72
2022/11/01 01:57:54;;;;;;;7.83;6.80;;;14.30;99.90;;;;;;5032120;28;20437;-72
2022/11/01 02:00:20;;;;;;;8.83;7.20;;;14.40;99.90;;;;;;5032861;28;20421;-72
2022/11/01 02:02:45;;;;;;;11.27;6.93;;;14.50;99.90;;;;;;5033995;28;20769;-72
2022/11/01 02:05:32;;;;;;;8.03;7.03;;;14.50;99.90;;;;;;5033300;28;20170;-72
2022/11/01 02:07:59;;;;;;;9.40;6.70;;;14.50;99.90;;;;;;5033091;28;20228;-73
2022/11/01 02:10:26;;;;;;;10.83;7.90;;;14.60;99.90;;;;;;5033626;28;20430;-72
2022/11/01 02:12:51;;;;;;;9.57;6.77;;;14.60;99.90;;;;;;5033395;28;20450;-72
2022/11/01 02:15:22;;;;;;;10.80;7.30;;;14.70;99.90;;;;;;5032945;28;20419;-72
2022/11/01 02:17:52;;;;;;;11.47;7.40;;;14.70;99.90;;;;;;5033093;28;20209;-72
2022/11/01 02:21:04;;;;;;;11.87;7.57;;;14.60;99.90;;;;;;5033434;28;20442;-72
2022/11/01 02:24:06;;;;;;;9.03;7.30;;;14.70;99.90;;;;;;5032816;28;20406;-73
2022/11/01 02:26:50;;;;;;;8.33;7.00;;;14.70;99.90;;;;;;5036977;28;20443;-72
2022/11/01 02:29:53;;;;;;;6.90;5.63;;;14.80;99.90;;;;;;5036223;28;20514;-72
2022/11/01 02:32:27;;;;;;;9.77;8.00;;;14.80;99.90;;;;;;5036834;28;20451;-71
2022/11/01 02:35:30;;;;;;;10.63;6.57;;;14.90;99.90;;;;;;5036993;28;20820;-72
2022/11/01 02:38:25;;;;;;;10.03;7.37;;;14.80;99.90;;;;;;5037203;28;20778;-73
2022/11/01 02:41:12;;;;;;;7.77;6.90;;;14.90;99.90;;;;;;5037227;28;20872;-73
2022/11/01 02:43:51;;;;;;;10.77;6.80;;;14.90;99.90;;;;;;5036892;28;20491;-71
2022/11/01 02:49:05;;;;;;;7.53;6.60;;;14.90;99.90;;;;;;5037080;28;20396;-73
2022/11/01 02:51:32;;;;;;;8.10;6.67;;;15.00;99.90;;;;;;5037133;28;20414;-73
2022/11/01 02:54:06;;;;;;;6.90;6.20;;;15.10;99.90;;;;;;5036761;28;20421;-71
2022/11/01 02:56:33;;;;;;;7.87;6.70;;;15.10;99.90;;;;;;5037085;28;20425;-71
2022/11/01 02:58:59;;;;;;;11.33;6.90;;;15.10;99.90;;;;;;5036592;28;20410;-72
2022/11/01 03:01:27;;;;;;;7.03;6.23;;;15.20;99.90;;;;;;5035973;28;20405;-73
2022/11/01 03:03:56;;;;;;;10.60;7.10;;;15.20;99.90;;;;;;5036449;28;20435;-71
2022/11/01 03:06:28;;;;;;;9.70;7.40;;;15.00;99.90;;;;;;5036873;28;20521;-72
2022/11/01 03:08:58;;;;;;;9.40;6.60;;;15.00;99.90;;;;;;5036459;28;20399;-72
2022/11/01 03:11:52;;;;;;;9.70;7.23;;;14.90;99.90;;;;;;5036396;28;20450;-71
2022/11/01 03:14:23;;;;;;;10.20;7.47;;;14.80;99.90;;;;;;5035939;28;20414;-70
2022/11/01 03:17:05;;;;;;;11.63;8.00;;;14.90;99.90;;;;;;5035666;28;20453;-72
2022/11/01 03:19:41;;;;;;;7.27;6.50;;;14.90;99.90;;;;;;5036353;28;20403;-72
2022/11/01 03:22:39;;;;;;;10.00;7.20;;;14.90;99.90;;;;;;5036115;28;20501;-72
2022/11/01 03:25:04;;;;;;;12.20;7.20;;;14.70;99.90;;;;;;5027851;28;20835;-73
2022/11/01 03:27:38;;;;;;;11.67;6.53;;;14.80;99.90;;;;;;5036287;28;20529;-71
2022/11/01 03:30:12;;;;;;;8.00;6.93;;;14.90;99.90;;;;;;5035671;28;20184;-71
2022/11/01 03:32:48;;;;;;;8.20;6.93;;;15.00;99.90;;;;;;5035746;28;20945;-72
2022/11/01 03:35:18;;;;;;;12.93;6.67;;;15.00;99.90;;;;;;5036017;28;20411;-71
2022/11/01 03:37:45;;;;;;;8.70;7.00;;;15.10;99.90;;;;;;5034788;28;20923;-72
2022/11/01 03:40:14;;;;;;;7.23;6.50;;;15.30;99.90;;;;;;5035698;28;20400;-71
2022/11/01 03:42:47;;;;;;;9.80;6.10;;;15.20;99.90;;;;;;5036556;28;20821;-72
2022/11/01 03:45:15;;;;;;;11.00;6.30;;;15.20;99.90;;;;;;5035939;28;20400;-72
2022/11/01 03:47:41;;;;;;;8.33;6.40;;;15.30;99.90;;;;;;5031207;28;20800;-73
2022/11/01 03:50:26;;;;;;;9.67;6.30;;;15.30;99.90;;;;;;5024416;28;20421;-69
2022/11/01 03:52:52;;;;;;;8.00;5.80;;;15.30;99.90;;;;;;5015916;28;20600;-73
2022/11/01 03:55:20;;;;;;;10.37;5.93;;;15.40;99.90;;;;;;5015972;28;20816;-73
2022/11/01 03:58:06;;;;;;;8.97;7.00;;;15.40;99.90;;;;;;5015748;28;20200;-72
2022/11/01 04:00:43;;;;;;;9.00;5.40;;;15.40;99.90;;;;;;5029491;28;20428;-72
2022/11/01 04:03:10;;;;;;;9.00;5.00;;;15.40;99.90;;;;;;5035435;28;20395;-72
2022/11/01 04:05:37;;;;;;;6.20;5.00;;;15.40;99.90;;;;;;5035249;28;20480;-72
2022/11/01 04:08:04;;;;;;;8.23;5.50;;;15.40;99.90;;;;;;5035031;28;20803;-72
2022/11/01 04:10:30;;;;;;;7.20;4.53;;;15.60;99.90;;;;;;5035145;28;20964;-72
2022/11/01 04:12:56;;;;;;;7.33;5.30;;;15.80;99.90;;;;;;5035123;28;20446;-74
2022/11/01 04:21:09;;;;;;;6.63;4.20;;;16.10;99.90;;;;;;5034638;28;20438;-73
2022/11/01 04:23:35;;;;;;;8.20;3.97;;;16.20;99.90;;;;;;5050331;28;20405;-72
2022/11/01 04:26:03;;;;;;;8.30;5.03;;;16.20;99.90;;;;;;5035658;28;20416;-73
2022/11/01 04:28:28;;;;;;;11.10;5.13;;;16.20;99.90;;;;;;5034953;28;20413;-72
2022/11/01 04:30:54;;;;;;;5.30;4.10;;;16.20;99.90;;;;;;5034618;28;20489;-73
2022/11/01 04:33:19;;;;;;;7.60;4.53;;;16.20;99.90;;;;;;5035064;28;20201;-72
2022/11/01 04:35:45;;;;;;;9.60;4.77;;;16.20;99.90;;;;;;5034960;28;20179;-72
2022/11/01 04:38:12;;;;;;;9.73;3.97;;;16.30;99.90;;;;;;5035051;28;20222;-72
2022/11/01 04:40:38;;;;;;;6.20;4.00;;;16.20;99.90;;;;;;5050060;28;20178;-72
2022/11/01 04:43:03;;;;;;;4.70;4.10;;;16.30;99.90;;;;;;5034973;28;20409;-72
2022/11/01 04:45:29;;;;;;;7.03;4.50;;;16.30;99.90;;;;;;5034519;28;20408;-72
2022/11/01 04:48:05;;;;;;;7.00;4.13;;;16.40;99.90;;;;;;5033914;28;20194;-72
2022/11/01 04:50:32;;;;;;;5.57;3.50;;;16.40;99.90;;;;;;5034400;28;20175;-72
2022/11/01 04:52:58;;;;;;;7.47;4.10;;;16.50;99.90;;;;;;5034674;28;20444;-72
2022/11/01 04:55:27;;;;;;;5.63;3.70;;;16.60;99.90;;;;;;5034435;28;20783;-72
2022/11/01 04:57:53;;;;;;;10.30;4.07;;;16.60;99.90;;;;;;5034133;28;20422;-72
2022/11/01 05:00:19;;;;;;;5.67;4.00;;;16.70;99.90;;;;;;5033973;28;20401;-72
2022/11/01 05:02:44;;;;;;;4.60;3.27;;;16.70;99.90;;;;;;5033926;28;20449;-72
2022/11/01 05:05:11;;;;;;;9.10;4.33;;;16.80;99.90;;;;;;5034512;28;20175;-72
2022/11/01 05:07:37;;;;;;;4.90;3.37;;;16.80;99.90;;;;;;5034350;28;20201;-72
2022/11/01 05:10:04;;;;;;;10.80;3.37;;;16.80;99.90;;;;;;5034079;28;20414;-72
2022/11/01 05:12:29;;;;;;;6.30;4.27;;;16.80;99.90;;;;;;5034503;28;20252;-72
2022/11/01 05:14:55;;;;;;;4.37;3.50;;;16.80;99.90;;;;;;5034028;28;20897;-71
2022/11/01 05:17:20;;;;;;;6.93;2.77;;;16.80;99.90;;;;;;5072231;22;20222;-72
2022/11/01 05:19:46;;;;;;;7.60;3.30;;;16.80;99.90;;;;;;5064987;28;20170;-72
2022/11/01 05:22:11;;;;;;;4.17;3.27;;;16.80;99.90;;;;;;5072452;28;20173;-72
2022/11/01 05:24:37;;;;;;;4.50;2.73;;;16.90;99.90;;;;;;5072239;28;20631;-72
2022/11/01 05:27:03;;;;;;;4.60;3.00;;;16.90;99.90;;;;;;5073731;28;20186;-74
2022/11/01 05:29:28;;;;;;;4.20;3.23;;;17.00;99.90;;;;;;5073683;28;20191;-72
2022/11/01 05:31:54;;;;;;;3.60;2.80;;;17.00;99.90;;;;;;5072817;28;20466;-72
2022/11/01 05:34:20;;;;;;;6.27;2.83;;;17.10;99.90;;;;;;5073624;28;20203;-72
2022/11/01 05:36:46;;;;;;;6.67;3.30;;;17.10;99.90;;;;;;5073497;28;20189;-73
2022/11/01 05:39:11;;;;;;;2.87;2.13;;;17.00;99.90;;;;;;5073320;28;20407;-72
2022/11/01 05:41:39;;;;;;;3.87;2.43;;;17.00;99.90;;;;;;5073296;28;20198;-73
2022/11/01 05:44:04;;;;;;;3.33;2.20;;;17.00;99.90;;;;;;5073681;28;20158;-72
2022/11/01 05:46:30;;;;;;;2.13;1.83;;;17.00;99.90;;;;;;5072825;28;20414;-72
2022/11/01 05:48:56;;;;;;;3.07;2.10;;;16.90;99.90;;;;;;5055235;28;20639;-72
2022/11/01 05:51:22;;;;;;;3.67;2.00;;;16.90;99.90;;;;;;5073182;28;20632;-72
2022/11/01 05:53:48;;;;;;;2.03;1.50;;;17.00;99.90;;;;;;5073133;28;20190;-72
2022/11/01 05:56:14;;;;;;;3.60;1.90;;;17.10;99.90;;;;;;5073128;28;20416;-72
2022/11/01 05:58:40;;;;;;;3.50;1.80;;;17.20;99.90;;;;;;5073222;28;20424;-72
2022/11/01 06:01:06;;;;;;;2.33;1.77;;;17.00;99.90;;;;;;5072108;28;20408;-72
2022/11/01 06:03:32;;;;;;;3.37;2.03;;;17.00;99.90;;;;;;5073015;28;20166;-73
2022/11/01 06:05:58;;;;;;;3.40;2.20;;;17.00;99.90;;;;;;5073054;28;20962;-73
2022/11/01 06:08:24;;;;;;;3.30;2.03;;;17.10;99.90;;;;;;5072904;28;20424;-72
2022/11/01 06:10:50;;;;;;;2.73;2.10;;;17.10;99.90;;;;;;5072975;28;20483;-73
2022/11/01 06:13:16;;;;;;;2.50;2.30;;;17.00;99.90;;;;;;5054727;28;21017;-73
2022/11/01 06:15:42;;;;;;;3.07;1.87;;;16.80;99.90;;;;;;5073035;28;20407;-73
2022/11/01 06:18:07;;;;;;;2.20;2.00;;;16.60;99.90;;;;;;5072422;28;20492;-73
2022/11/01 06:20:35;;;;;;;3.10;1.80;;;16.70;99.90;;;;;;5072831;28;20173;-73
2022/11/01 06:23:06;;;;;;;6.40;2.10;;;16.90;99.90;;;;;;5073120;28;20166;-73
2022/11/01 06:25:32;;;;;;;3.27;1.70;;;16.60;99.90;;;;;;5073188;28;20863;-73
2022/11/01 06:27:57;;;;;;;4.47;2.77;;;16.70;99.90;;;;;;5072736;28;20455;-73
2022/11/01 06:30:23;;;;;;;3.53;2.17;;;16.60;99.90;;;;;;5071971;28;20178;-73
2022/11/01 06:32:48;;;;;;;3.90;1.87;;;16.70;99.90;;;;;;5072755;28;20239;-73
2022/11/01 06:35:14;;;;;;;3.37;2.07;;;16.70;99.90;;;;;;5054728;28;20166;-73
2022/11/01 06:37:39;;;;;;;3.40;2.33;;;16.70;99.90;;;;;;5072806;28;20606;-73
2022/11/01 06:40:06;;;;;;;2.43;1.30;;;16.70;99.90;;;;;;5072937;28;20178;-73
2022/11/01 06:42:31;;;;;;;2.93;2.37;;;16.70;99.90;;;;;;5072654;28;20177;-73
2022/11/01 06:44:57;;;;;;;2.83;1.87;;;16.70;99.90;;;;;;5073168;28;20775;-73
2022/11/01 06:47:23;;;;;;;4.70;1.43;;;16.60;99.90;;;;;;5072030;28;20268;-73
2022/11/01 06:49:48;;;;;;;2.43;1.80;;;16.50;99.90;;;;;;5073069;28;20576;-73
2022/11/01 06:52:14;;;;;;;2.40;1.90;;;16.30;99.90;;;;;;5072447;28;20704;-73
2022/11/01 06:54:39;;;;;;;2.23;1.23;;;16.30;99.90;;;;;;5072554;28;20192;-73
2022/11/01 06:57:05;;;;;;;3.40;1.50;;;16.30;99.90;;;;;;5054516;28;20187;-73
2022/11/01 06:59:31;;;;;;;2.83;1.33;;;16.40;99.90;;;;;;5072711;28;20179;-73
2022/11/01 07:01:56;;;;;;;1.60;1.50;;;16.50;99.90;;;;;;5072197;28;20173;-73
2022/11/01 07:04:22;;;;;;;1.30;1.20;;;16.70;99.90;;;;;;5072566;28;20170;-73
2022/11/01 07:06:47;;;;;;;1.60;1.10;;;16.70;99.90;;;;;;5054483;28;20200;-73
2022/11/01 07:09:13;;;;;;;1.70;1.30;;;16.60;99.90;;;;;;5072545;28;20170;-73
2022/11/01 07:11:38;;;;;;;2.00;1.00;;;16.50;99.90;;;;;;5074363;28;20241;-73
2022/11/01 07:14:05;;;;;;;2.60;1.00;;;16.50;99.90;;;;;;5076067;28;20202;-73
2022/11/01 07:16:31;;;;;;;3.50;1.63;;;16.60;99.90;;;;;;5075303;28;20224;-72
2022/11/01 07:18:57;;;;;;;1.97;1.40;;;16.60;99.90;;;;;;5076146;28;20376;-73
2022/11/01 07:21:23;;;;;;;2.00;1.37;;;16.80;99.90;;;;;;5076151;28;20415;-72
2022/11/01 07:23:49;;;;;;;1.80;1.10;;;16.90;99.90;;;;;;5057961;28;20257;-73
2022/11/01 07:26:14;;;;;;;9.20;1.40;;;16.90;99.90;;;;;;5075792;28;20169;-73
2022/11/01 07:28:40;;;;;;;2.07;1.30;;;17.00;99.90;;;;;;5075671;28;20489;-72
2022/11/01 07:31:06;;;;;;;2.07;0.90;;;16.90;99.90;;;;;;5074467;28;20170;-73
2022/11/01 07:33:31;;;;;;;2.80;1.20;;;16.80;99.90;;;;;;5075941;28;20186;-72
2022/11/01 07:35:57;;;;;;;1.70;1.27;;;17.10;99.90;;;;;;5058097;28;20536;-72
2022/11/01 07:38:23;;;;;;;2.53;1.30;;;17.10;99.90;;;;;;5075949;28;20686;-73
2022/11/01 07:40:49;;;;;;;1.40;1.30;;;17.30;99.90;;;;;;5075675;28;20166;-72
2022/11/01 07:43:16;;;;;;;2.90;1.40;;;17.10;99.90;;;;;;5075591;28;20166;-72
2022/11/01 07:45:42;;;;;;;2.00;1.73;;;17.10;99.90;;;;;;5075551;28;20483;-72
2022/11/01 07:48:11;;;;;;;4.60;3.30;;;17.30;99.90;;;;;;5057543;28;20432;-73
2022/11/01 07:50:38;;;;;;;3.90;2.50;;;17.50;99.90;;;;;;5075974;28;20497;-72
2022/11/01 07:53:06;;;;;;;2.90;1.97;;;17.60;99.90;;;;;;5075427;28;20469;-72
2022/11/01 07:55:32;;;;;;;2.10;1.53;;;17.60;99.90;;;;;;5075574;28;20813;-72
2022/11/01 07:57:57;;;;;;;1.93;1.43;;;17.70;99.90;;;;;;5075452;28;20427;-72
2022/11/01 08:00:23;;;;;;;3.13;1.43;;;17.70;99.90;;;;;;5074977;28;20408;-72
2022/11/01 08:02:49;;;;;;;2.00;1.80;;;17.60;99.90;;;;;;5074916;28;20655;-72
2022/11/01 08:05:15;;;;;;;1.30;1.20;;;17.50;99.90;;;;;;5040569;28;20177;-71
2022/11/01 08:07:41;;;;;;;2.60;0.93;;;17.60;99.90;;;;;;5075388;28;20293;-72
2022/11/01 08:10:09;;;;;;;1.40;0.90;;;17.60;99.90;;;;;;5071798;28;20254;-72
2022/11/01 08:12:35;;;;;;;1.90;1.33;;;17.50;99.90;;;;;;5066190;28;20443;-72
2022/11/01 08:15:01;;;;;;;1.87;0.90;;;17.60;99.90;;;;;;5075215;28;20405;-72
2022/11/01 08:17:30;;;;;;;1.47;0.90;;;17.80;99.90;;;;;;5074450;28;20210;-72
2022/11/01 08:19:55;;;;;;;1.20;1.00;;;17.80;99.90;;;;;;5075187;28;20413;-73
2022/11/01 08:22:21;;;;;;;1.30;1.20;;;17.70;99.90;;;;;;5073955;28;20411;-72
2022/11/01 08:24:47;;;;;;;1.53;1.10;;;17.80;99.90;;;;;;5074526;28;20545;-72
2022/11/01 08:27:13;;;;;;;1.33;1.00;;;17.90;99.90;;;;;;5074627;28;20309;-72
2022/11/01 08:29:39;;;;;;;1.90;0.83;;;17.80;99.90;;;;;;5055669;28;20511;-72
2022/11/01 08:32:04;;;;;;;1.90;1.40;;;17.70;99.90;;;;;;5057212;28;20204;-72
2022/11/01 08:34:30;;;;;;;2.70;0.87;;;17.90;99.90;;;;;;5074568;28;20630;-72
2022/11/01 08:36:59;;;;;;;0.87;0.70;;;18.00;99.90;;;;;;5074721;28;20186;-72
2022/11/01 08:39:25;;;;;;;1.50;1.00;;;18.10;99.90;;;;;;5056646;28;20620;-72
2022/11/01 08:41:51;;;;;;;1.00;0.90;;;18.00;99.90;;;;;;5074747;28;20404;-72
2022/11/01 08:44:18;;;;;;;1.00;0.80;;;18.10;99.90;;;;;;5074153;28;20483;-72
2022/11/01 08:46:44;;;;;;;1.10;0.90;;;18.40;99.90;;;;;;5073991;28;20446;-73
2022/11/01 08:49:10;;;;;;;1.10;0.83;;;18.40;99.90;;;;;;5074285;28;20411;-72
2022/11/01 08:51:36;;;;;;;1.00;0.77;;;18.50;99.90;;;;;;5073937;28;20405;-72
2022/11/01 08:54:02;;;;;;;0.90;0.80;;;18.50;99.90;;;;;;5074427;28;20457;-71
2022/11/01 08:56:28;;;;;;;1.97;0.90;;;18.40;99.90;;;;;;5073968;28;20255;-72
2022/11/01 08:58:54;;;;;;;1.60;1.40;;;18.30;99.90;;;;;;5074449;28;20173;-73
2022/11/01 09:01:22;;;;;;;1.00;0.90;;;18.20;99.90;;;;;;5073529;28;20412;-72
2022/11/01 09:03:48;;;;;;;1.10;1.00;;;18.10;99.90;;;;;;5074025;28;20521;-72
2022/11/01 09:06:14;;;;;;;1.90;1.40;;;18.10;99.90;;;;;;5073920;28;20412;-74
2022/11/01 09:08:39;;;;;;;1.47;1.00;;;18.30;99.90;;;;;;5074005;28;20268;-74
2022/11/01 09:11:05;;;;;;;1.47;1.30;;;18.50;99.90;;;;;;5074038;28;20632;-74
2022/11/01 09:13:32;;;;;;;1.20;0.80;;;18.50;99.90;;;;;;5074557;28;20189;-75
2022/11/01 09:15:57;;;;;;;1.10;1.00;;;18.30;99.90;;;;;;5073661;28;20166;-74
2022/11/01 09:18:23;;;;;;;1.57;1.03;;;18.30;99.90;;;;;;5073549;28;20521;-74
2022/11/01 09:20:55;;;;;;;1.77;0.77;;;18.50;99.90;;;;;;5074318;28;20558;-74
2022/11/01 09:23:21;;;;;;;1.10;0.93;;;18.50;99.90;;;;;;5074032;28;20198;-73
2022/11/01 09:25:47;;;;;;;1.77;1.10;;;18.30;99.90;;;;;;5073748;28;20414;-74
2022/11/01 09:28:13;;;;;;;2.63;1.30;;;18.50;99.90;;;;;;5073864;28;20442;-74
2022/11/01 09:30:39;;;;;;;2.23;1.40;;;18.50;99.90;;;;;;5072498;28;20941;-74
2022/11/01 09:33:05;;;;;;;2.50;0.90;;;18.70;99.90;;;;;;5073028;28;20451;-73
2022/11/01 09:35:32;;;;;;;1.73;1.03;;;18.70;99.90;;;;;;5072649;28;20174;-74
2022/11/01 09:37:59;;;;;;;1.93;0.90;;;18.80;99.90;;;;;;5072994;28;20406;-74
2022/11/01 09:40:34;;;;;;;3.80;1.10;;;19.20;99.90;;;;;;5074299;28;20412;-74
2022/11/01 09:43:00;;;;;;;0.80;0.63;;;19.40;99.90;;;;;;5073881;28;20395;-75
2022/11/01 09:45:31;;;;;;;1.00;0.80;;;19.30;99.90;;;;;;5074165;28;20411;-75
2022/11/01 09:47:58;;;;;;;1.40;0.70;;;19.10;99.90;;;;;;5073640;28;20507;-74
2022/11/01 09:50:29;;;;;;;1.23;1.00;;;19.20;99.90;;;;;;5073600;28;20965;-74
2022/11/01 09:52:57;;;;;;;0.90;0.70;;;19.30;99.90;;;;;;5073284;28;20475;-73
2022/11/01 09:55:36;;;;;;;1.13;0.80;;;19.20;99.90;;;;;;5073680;28;20408;-76
2022/11/01 09:58:20;;;;;;;1.10;1.00;;;19.10;99.90;;;;;;5074323;28;20428;-75
2022/11/01 10:01:04;;;;;;;2.50;0.90;;;19.40;99.90;;;;;;5073056;28;20408;-75
2022/11/01 10:03:37;;;;;;;1.70;0.80;;;19.50;99.90;;;;;;5073523;28;20431;-76
2022/11/01 10:06:25;;;;;;;1.20;0.97;;;19.80;99.90;;;;;;5073556;28;20389;-75
2022/11/01 10:09:16;;;;;;;2.50;0.80;;;20.20;99.90;;;;;;5073643;28;20820;-76
2022/11/01 10:11:53;;;;;;;1.00;0.80;;;20.50;99.90;;;;;;5073638;28;20391;-74
2022/11/01 10:14:53;;;;;;;2.17;0.83;;;20.20;99.90;;;;;;5073515;28;20446;-76
2022/11/01 10:17:52;;;;;;;1.87;1.03;;;20.10;99.90;;;;;;5073244;28;20910;-74
2022/11/01 10:20:21;;;;;;;2.90;1.27;;;20.10;99.90;;;;;;5073466;28;20783;-76
2022/11/01 10:22:49;;;;;;;1.20;1.07;;;20.30;99.90;;;;;;5073031;28;20882;-75
2022/11/01 10:25:15;;;;;;;1.83;0.80;;;20.70;99.90;;;;;;5073060;28;20412;-75
2022/11/01 10:28:03;;;;;;;1.33;0.97;;;21.00;99.90;;;;;;5073005;28;20435;-75
2022/11/01 10:30:36;;;;;;;2.50;0.87;;;20.80;99.90;;;;;;5071821;28;20648;-74
2022/11/01 10:33:13;;;;;;;1.20;0.90;;;21.00;99.90;;;;;;5072844;28;20444;-74
2022/11/01 10:35:42;;;;;;;3.47;1.00;;;21.10;99.90;;;;;;5072855;28;20887;-76
2022/11/01 10:38:30;;;;;;;2.17;1.30;;;21.10;99.90;;;;;;5073090;28;20424;-75
2022/11/01 10:41:04;;;;;;;2.27;1.00;;;21.20;99.90;;;;;;5072804;28;20445;-74
2022/11/01 10:43:34;;;;;;;1.93;0.83;;;20.70;99.90;;;;;;5056112;28;20842;-75
2022/11/01 10:46:02;;;;;;;2.03;1.00;;;20.70;99.90;;;;;;5073572;28;20384;-76
2022/11/01 10:48:40;;;;;;;1.93;1.13;;;21.00;99.90;;;;;;5076888;28;20435;-75
2022/11/01 10:51:08;;;;;;;2.50;1.10;;;20.90;99.90;;;;;;5076813;28;20384;-75
2022/11/01 10:53:43;;;;;;;1.20;1.07;;;20.50;99.90;;;;;;5076908;28;20965;-76
2022/11/01 10:56:15;;;;;;;1.73;1.20;;;20.10;99.90;;;;;;5076662;28;20383;-75
2022/11/01 10:58:53;;;;;;;2.23;1.10;;;19.90;99.90;;;;;;5076596;28;20424;-77
2022/11/01 11:01:23;;;;;;;2.80;1.10;;;19.70;99.90;;;;;;5075971;28;20431;-75
2022/11/01 11:03:50;;;;;;;2.97;1.50;;;19.70;99.90;;;;;;5068992;28;20479;-74
2022/11/01 11:06:17;;;;;;;2.30;1.20;;;19.60;99.90;;;;;;5071223;28;20417;-74
2022/11/01 11:08:48;;;;;;;2.40;1.47;;;19.60;99.90;;;;;;5076333;28;20435;-76
2022/11/01 11:11:15;;;;;;;2.00;1.33;;;19.50;99.90;;;;;;5074971;28;20419;-76
2022/11/01 11:13:49;;;;;;;1.50;1.00;;;19.60;99.90;;;;;;5077118;28;20446;-76
2022/11/01 11:16:30;;;;;;;1.83;1.40;;;19.60;99.90;;;;;;5076694;28;20424;-76
2022/11/01 11:19:24;;;;;;;1.83;1.20;;;19.80;99.90;;;;;;5102537;22;20547;-75
2022/11/01 11:21:52;;;;;;;2.07;1.20;;;19.50;99.90;;;;;;5092645;28;20409;-74
2022/11/01 11:24:21;;;;;;;3.10;1.40;;;19.80;99.90;;;;;;5096041;28;20395;-73
2022/11/01 11:26:53;;;;;;;1.87;1.40;;;20.20;99.90;;;;;;5095387;28;20395;-73
2022/11/01 11:29:35;;;;;;;2.93;1.47;;;20.70;99.90;;;;;;5095644;28;20372;-74
2022/11/01 11:32:02;;;;;;;1.90;1.03;;;20.80;99.90;;;;;;5054877;28;20458;-73
2022/11/01 11:34:32;;;;;;;1.57;1.30;;;20.90;99.90;;;;;;5055532;28;20456;-73
2022/11/01 11:37:00;;;;;;;4.13;1.67;;;21.00;99.90;;;;;;5055077;28;20401;-73
2022/11/01 11:39:31;;;;;;;3.73;1.00;;;21.30;99.90;;;;;;5054977;28;20919;-73
2022/11/01 11:42:22;;;;;;;2.07;1.10;;;21.80;99.90;;;;;;5037250;28;20411;-74
2022/11/01 11:44:52;;;;;;;1.63;1.00;;;22.80;99.90;;;;;;5036747;28;20761;-73
2022/11/01 11:47:27;;;;;;;1.60;1.00;;;23.10;99.90;;;;;;5054682;28;20764;-74
2022/11/01 11:49:55;;;;;;;2.30;1.10;;;22.10;99.90;;;;;;5054950;28;20413;-74
2022/11/01 11:52:24;;;;;;;1.50;0.90;;;22.10;99.90;;;;;;5054428;28;20444;-73
2022/11/01 11:54:50;;;;;;;2.10;0.93;;;21.70;99.90;;;;;;5053100;28;21049;-73
2022/11/01 11:57:28;;;;;;;1.13;0.80;;;21.80;99.90;;;;;;5053877;28;20504;-74
2022/11/01 12:00:05;;;;;;;1.73;0.80;;;21.20;99.90;;;;;;5058815;28;20174;-74
2022/11/01 12:02:39;;;;;;;1.40;0.80;;;21.00;99.90;;;;;;5074701;28;20879;-74
2022/11/01 12:05:08;;;;;;;2.27;1.00;;;21.00;99.90;;;;;;5074434;28;20775;-73
2022/11/01 12:07:38;;;;;;;2.60;1.30;;;20.80;99.90;;;;;;5074622;28;20435;-73
2022/11/01 12:10:25;;;;;;;4.30;1.20;;;20.70;99.90;;;;;;5056530;28;20435;-74
2022/11/01 12:12:52;;;;;;;3.00;1.20;;;20.70;99.90;;;;;;5056359;28;20459;-74
2022/11/01 12:15:28;;;;;;;2.20;1.10;;;20.50;99.90;;;;;;5073920;28;20408;-74
2022/11/01 12:17:55;;;;;;;2.07;1.20;;;20.30;99.90;;;;;;5073926;28;20431;-74
2022/11/01 12:20:23;;;;;;;3.57;1.63;;;20.30;99.90;;;;;;5073913;28;20404;-74
2022/11/01 12:23:06;;;;;;;2.63;1.70;;;20.30;99.90;;;;;;5073601;28;20431;-73
2022/11/01 12:25:34;;;;;;;1.87;1.30;;;20.20;99.90;;;;;;5074041;28;20867;-73
2022/11/01 12:28:04;;;;;;;2.80;1.40;;;20.20;99.90;;;;;;5073576;28;20420;-74
2022/11/01 12:30:33;;;;;;;3.97;1.73;;;20.10;99.90;;;;;;5072283;28;20430;-73
2022/11/01 12:33:08;;;;;;;3.67;2.27;;;19.90;99.90;;;;;;5055503;28;20496;-74
2022/11/01 12:35:42;;;;;;;4.00;1.90;;;19.90;99.90;;;;;;5074083;28;20396;-74
2022/11/01 12:38:27;;;;;;;5.40;2.60;;;19.60;99.90;;;;;;5073181;28;20473;-75
2022/11/01 12:40:53;;;;;;;4.30;2.07;;;19.20;99.90;;;;;;5073451;28;20590;-75
2022/11/01 12:43:22;;;;;;;2.93;1.57;;;19.00;99.90;;;;;;5073358;28;20462;-71
2022/11/01 12:46:02;;;;;;;6.27;2.10;;;18.80;99.90;;;;;;5073108;28;20400;-74
2022/11/01 12:48:30;;;;;;;4.57;2.03;;;20.00;99.90;;;;;;5073649;28;20937;-74
2022/11/01 12:51:20;;;;;;;6.17;2.40;;;20.90;99.90;;;;;;5073517;28;20928;-75
2022/11/01 12:53:55;;;;;;;4.50;1.83;;;20.70;99.90;;;;;;5073325;28;20432;-74
2022/11/01 12:56:20;;;;;;;3.87;2.07;;;20.40;99.90;;;;;;5081421;28;20422;-74
2022/11/01 12:58:46;;;;;;;5.73;2.50;;;19.90;99.90;;;;;;5073132;28;20420;-74
2022/11/01 13:01:29;;;;;;;3.70;1.90;;;19.60;99.90;;;;;;5072863;28;20174;-74
2022/11/01 13:04:01;;;;;;;3.73;1.80;;;19.60;99.90;;;;;;5073521;28;20158;-74
2022/11/01 13:06:45;;;;;;;2.80;1.43;;;20.20;99.90;;;;;;5073167;28;20422;-73